EPWAEPWR

Guest
Details From EPWA - WARSZAWA Okecie
To EPWR - STRACHOWICE
Flight Number -
Tags decoded
Created
Modified
Stats Distance 169 nm / 312 km
Max Altitude 0 ft / 0 m
Waypoints 4
Social Downloads 5
Likes 0
Share VATSIM

Download

Looking for another format? Having issues loading an existing format? Contact us
Advertisement - Login to hide

Notes

Requested: EPWA SOXER N869 AGALU EPWR Unmatched points: N869

Route

EPWA SOXER AGALU EPWR

ID Type Via Altitude Latitude Longitude Leg Dist Tot Dist Heading (true) Name
O EPWA APT - 0 ft / 0 m 52.16509˚ 20.96692˚ - 0 nm - WARSZAWA Okecie
SOXER FIX - 0 ft / 0 m 52.04383˚ 19.93497˚ 38 nm 38 nm 260° / 259° -
AGALU FIX - 0 ft / 0 m 51.47139˚ 17.38556˚ 100 nm 139 nm 251° / 249° -
O EPWR APT - 0 ft / 0 m 51.10388˚ 16.88189˚ 29 nm 168 nm 221° / 220° STRACHOWICE

Altitude Profile

Advertisement - Login to hide

Weather


0- 5 10 15 20 25 30 35+ Temperature / ° C

Clouds and Precipitation
Forecast for 2018-05-25 00:00 UTC. Updated 18 minutes ago

Ground ~20,000 ft ~40,000 ft Winds

EPWA

Details ICAO EPWA (WAW)
Name WARSZAWA Okecie
Region Poland
Timezone Europe/Warsaw (UTC+2.0)
Stats Elevation 328 ft / 100 m (AMSL)
Location 52.165091° 20.966923°
Runways 2
Magnetic Variation 5.858° E

METAR

EPWA 242300Z 04010KT CAVOK 18/10 Q1021 NOSIG

Decode

TAF

TAF EPWA 242030Z 2421/2521 04006KT CAVOK TEMPO 2508/2512 SHRA BKN040CB TEMPO 2512/2521 TSRA BKN030CB

Decode

Departure Runways

ID Width Length Bearing (true) Bearing (mag) Surface Threshold Offset Overrun Length
11 164 ft / 50 m 9,163 ft / 2,793 m 114.64° 108.78° Asphalt 0 ft / 0 m 476 ft / 145 m
15 197 ft / 60 m 12,112 ft / 3,692 m 151.85° 145.99° Asphalt 0 ft / 0 m 0 ft / 0 m
29 164 ft / 50 m 9,163 ft / 2,793 m 294.67° 288.81° Asphalt 1,608 ft / 490 m 0 ft / 0 m
33 197 ft / 60 m 12,112 ft / 3,692 m 331.87° 326.01° Asphalt 0 ft / 0 m 0 ft / 0 m

EPWR

Details ICAO EPWR (WRO)
Name STRACHOWICE
Region Poland
Timezone Europe/Warsaw (UTC+2.0)
Stats Elevation 404 ft / 123 m (AMSL)
Location 51.103882° 16.881892°
Runways 1
Magnetic Variation 4.669° E

METAR

EPWR 242300Z 06004KT CAVOK 16/10 Q1021

Decode

TAF

TAF EPWR 242030Z 2421/2521 08006KT CAVOK TEMPO 2509/2521 SCT040CB PROB30 TEMPO 2513/2518 VRB18G35KT TSRA

Decode

Destination Runways

ID Width Length Bearing (true) Bearing (mag) Surface Threshold Offset Overrun Length
12 197 ft / 60 m 8,192 ft / 2,497 m 115.99° 111.32° Concrete 0 ft / 0 m 0 ft / 0 m
30 197 ft / 60 m 8,192 ft / 2,497 m 296.01° 291.34° Concrete 0 ft / 0 m 0 ft / 0 m

Approach Navaids

Runway Type Ident Frequency Range Bearing (true) Bearing (mag) Slope Elevation
30 Localiser WRO 110.30 MHz 18 nm / 33 km 295.98° 291.32° - 404 ft / 123 m (AMSL)
30 Glidescope WRO 110.30 MHz 10 nm / 19 km 296.00° 291.33° 3.00° 404 ft / 123 m (AMSL)
30 DME WRO 110.30 MHz 18 nm / 33 km - - - 394 ft / 120 m (AMSL)

Popular Alternatives